Ana Sayfa
METAR-TAF:

METAR-TAF

Havaalanları :

Bahreyn, Bahreyn

Enlem: 26-16N, Boylam: 050-39E, yükseklik: 2 m

Güncel hava durumu gözlemi

Rapor saat 02:30 UTC de 22 dakika önce yapıldı.
Rüzgar kuzeydan 15 kt
Sıcaklık 26°C
Nem 48%
Basınç 1011 hPa
Görüş mesafesi: 9000 m

METAR: OBBI 240230Z 01015KT 9000 NSC 26/14 Q1011 NOSIG

Saat: 05:52 (02:52 UTC)

Tahmin

Rapor saat 23:00 UTC de 3 saat ve 52 dakika önce yapıldı.
Ayın 24'si saat 00 UTC'den ayın 25'si saat 06 UTC'ye kadar geçerli Tahmin
Rüzgar kuzey/kuzeybatıdan 15 kt ve 25 kt'a kadar ani rüzgarlar
Görüş mesafesi: 7000 m

TAF: OBBI 232300Z 2400/2506 34015G25KT 7000 NSC

4.000'den fazla havaalanı için hava durumu gözlemleri ve tahminleri (METAR ve TAF raporları).

Kullanılabilir istasyonlar harita üzerinde sarı ve kırmızı noktalarla gösterilir.

İstasyonun adını görmek için fareyi noktanın üzerinde gezdirin.

Sonrasında hava gözlem ve tahminlerini görmek için tıklayın.

Haritayı değiştirmek için: yaklaştırmak için siyah artı işaretli yeşil düğmeye ve uzaklaştırmak için de eksi işaretli düğmeye hızla tıklayın; bitişik haritalar için yeşil okları kullanın.


METAR-TAF: